createdAt,value
2018-01-24T00:01:02.243Z,100940.86
2018-01-24T00:02:08.476Z,100939.56
2018-01-24T00:03:14.416Z,100942.98
2018-01-24T00:04:21.495Z,100942.10
2018-01-24T00:05:28.615Z,100936.48
2018-01-24T00:06:34.752Z,100930.31
2018-01-24T00:07:40.951Z,100941.06
2018-01-24T00:08:46.871Z,100942.34
2018-01-24T00:09:53.119Z,100940.62
2018-01-24T00:10:59.036Z,100945.84
2018-01-24T00:12:05.083Z,100948.07
2018-01-24T00:13:11.206Z,100944.53
2018-01-24T00:14:17.400Z,100953.66
2018-01-24T00:15:27.484Z,100945.48
2018-01-24T00:16:33.912Z,100948.44
2018-01-24T00:17:40.179Z,100940.92
2018-01-24T00:18:46.187Z,100936.94
2018-01-24T00:19:53.087Z,100931.34
2018-01-24T00:20:59.211Z,100923.03
2018-01-24T00:22:05.402Z,100912.62
2018-01-24T00:23:11.296Z,100913.17
2018-01-24T00:24:18.108Z,100908.77
2018-01-24T00:25:24.277Z,100921.00
2018-01-24T00:26:30.078Z,100935.34
2018-01-24T00:27:36.302Z,100941.22
2018-01-24T00:28:42.275Z,100941.11
2018-01-24T00:29:48.412Z,100944.95
2018-01-24T00:30:54.592Z,100940.23
2018-01-24T00:32:00.778Z,100930.34
2018-01-24T00:33:06.985Z,100940.80
2018-01-24T00:34:13.246Z,100940.48
2018-01-24T00:35:19.377Z,100936.52
2018-01-24T00:36:27.533Z,100941.11
2018-01-24T00:37:33.425Z,100930.17
2018-01-24T00:38:41.393Z,100933.62
2018-01-24T00:39:47.598Z,100934.52
2018-01-24T00:40:53.416Z,100943.62
2018-01-24T00:41:59.616Z,100934.52
2018-01-24T00:43:05.729Z,100934.08
2018-01-24T00:44:12.781Z,100917.53
2018-01-24T00:45:18.894Z,100922.70
2018-01-24T00:46:25.341Z,100915.73
2018-01-24T00:47:31.559Z,100917.56
2018-01-24T00:48:37.737Z,100919.28
2018-01-24T00:49:43.991Z,100926.25
2018-01-24T00:50:50.165Z,100929.34
2018-01-24T00:52:01.347Z,100937.47
2018-01-24T00:53:08.394Z,100937.77
2018-01-24T00:54:14.535Z,100941.17
2018-01-24T00:55:21.583Z,100936.39
2018-01-24T00:56:27.718Z,100938.50
2018-01-24T00:57:33.881Z,100935.47
2018-01-24T00:58:40.050Z,100934.61
2018-01-24T00:59:47.110Z,100925.55
2018-01-24T01:00:53.300Z,100927.33
2018-01-24T01:01:59.457Z,100929.00
2018-01-24T01:03:07.047Z,100935.84
2018-01-24T01:04:13.188Z,100932.73
2018-01-24T01:05:19.270Z,100930.47
2018-01-24T01:06:25.437Z,100945.72
2018-01-24T01:07:31.575Z,100948.59
2018-01-24T01:08:37.777Z,100951.70
2018-01-24T01:09:43.921Z,100955.20
2018-01-24T01:10:50.090Z,100957.36
2018-01-24T01:11:56.263Z,100953.04
2018-01-24T01:13:02.375Z,100948.87
2018-01-24T01:14:08.418Z,100950.92
2018-01-24T01:15:14.582Z,100955.65
2018-01-24T01:16:20.849Z,100951.36
2018-01-24T01:17:26.997Z,100954.47
2018-01-24T01:18:33.231Z,100944.39
2018-01-24T01:19:39.500Z,100948.39
2018-01-24T01:20:45.721Z,100946.66
2018-01-24T01:21:52.069Z,100946.88
2018-01-24T01:22:58.169Z,100947.87
2018-01-24T01:24:04.309Z,100957.08
2018-01-24T01:25:10.112Z,100961.84
2018-01-24T01:26:16.246Z,100960.94
2018-01-24T01:27:22.450Z,100971.44
2018-01-24T01:28:28.560Z,100965.64
2018-01-24T01:29:34.750Z,100962.39
2018-01-24T01:30:41.012Z,100964.48
2018-01-24T01:31:47.882Z,100960.50
2018-01-24T01:32:54.016Z,100957.15
2018-01-24T01:34:00.174Z,100954.92
2018-01-24T01:35:06.321Z,100953.61
2018-01-24T01:36:12.488Z,100958.91
2018-01-24T01:37:18.653Z,100947.73
2018-01-24T01:38:24.775Z,100944.63
2018-01-24T01:39:30.928Z,100942.79
2018-01-24T01:40:37.052Z,100944.11
2018-01-24T01:41:43.168Z,100935.89
2018-01-24T01:42:49.200Z,100941.48
2018-01-24T01:43:55.267Z,100951.13
2018-01-24T01:45:01.417Z,100951.92
2018-01-24T01:46:07.610Z,100956.20
2018-01-24T01:47:13.649Z,100954.92
2018-01-24T01:48:31.025Z,100957.95
2018-01-24T01:49:37.024Z,100954.34
2018-01-24T01:50:43.021Z,100950.31
2018-01-24T01:51:48.984Z,100950.70
2018-01-24T01:52:54.979Z,100949.63
2018-01-24T01:54:00.888Z,100944.45
2018-01-24T01:55:06.900Z,100934.55
2018-01-24T01:56:13.050Z,100928.06
2018-01-24T01:57:18.983Z,100929.73
2018-01-24T01:58:25.161Z,100924.83
2018-01-24T01:59:31.148Z,100926.71
2018-01-24T02:00:37.300Z,100922.20
2018-01-24T02:01:48.394Z,100927.38
2018-01-24T02:02:54.522Z,100929.47
2018-01-24T02:04:00.678Z,100929.89
2018-01-24T02:05:06.808Z,100934.41
2018-01-24T02:06:13.010Z,100936.13
2018-01-24T02:07:19.239Z,100937.81
2018-01-24T02:08:25.359Z,100934.33
2018-01-24T02:09:31.547Z,100942.09
2018-01-24T02:10:37.713Z,100944.55
2018-01-24T02:11:43.938Z,100940.78
2018-01-24T02:12:50.178Z,100936.69
2018-01-24T02:13:56.299Z,100930.55
2018-01-24T02:15:02.427Z,100923.59
2018-01-24T02:16:08.229Z,100922.70
2018-01-24T02:17:13.833Z,100923.07
2018-01-24T02:18:19.768Z,100920.09
2018-01-24T02:19:25.683Z,100918.28
2018-01-24T02:20:31.709Z,100921.27
2018-01-24T02:21:37.888Z,100929.15
2018-01-24T02:22:44.110Z,100919.47
2018-01-24T02:23:50.066Z,100922.28
2018-01-24T02:24:56.075Z,100912.26
2018-01-24T02:26:02.438Z,100915.69
2018-01-24T02:27:08.405Z,100913.66
2018-01-24T02:28:14.461Z,100911.19
2018-01-24T02:29:20.595Z,100923.37
2018-01-24T02:30:26.759Z,100917.78
2018-01-24T02:31:32.993Z,100914.67
2018-01-24T02:32:39.122Z,100915.98
2018-01-24T02:33:45.283Z,100918.73
2018-01-24T02:34:51.679Z,100910.67
2018-01-24T02:35:57.871Z,100908.48
2018-01-24T02:37:09.159Z,100908.02
2018-01-24T02:40:05.295Z,100908.14
2018-01-24T02:41:11.406Z,100915.89
2018-01-24T02:42:17.563Z,100914.95
2018-01-24T02:43:23.672Z,100918.37
2018-01-24T02:44:29.805Z,100913.66
2018-01-24T02:45:36.222Z,100920.09
2018-01-24T02:46:42.375Z,100914.87
2018-01-24T02:47:48.531Z,100922.14
2018-01-24T02:48:54.743Z,100925.55
2018-01-24T02:50:01.765Z,100927.30
2018-01-24T02:51:07.914Z,100926.85
2018-01-24T02:52:14.124Z,100927.23
2018-01-24T02:53:20.544Z,100932.42
2018-01-24T02:54:26.650Z,100928.59
2018-01-24T02:55:32.750Z,100925.47
2018-01-24T02:56:38.953Z,100925.05
2018-01-24T02:57:47.218Z,100924.17
2018-01-24T02:58:53.329Z,100924.61
2018-01-24T02:59:59.430Z,100933.30
2018-01-24T03:01:05.527Z,100931.13
2018-01-24T03:02:11.282Z,100930.09
2018-01-24T03:03:18.519Z,100936.72
2018-01-24T03:04:24.409Z,100926.70
2018-01-24T03:05:30.521Z,100924.00
2018-01-24T03:06:36.681Z,100925.38
2018-01-24T03:07:42.785Z,100920.77
2018-01-24T03:08:48.968Z,100921.18
2018-01-24T03:09:55.092Z,100921.78
2018-01-24T03:11:01.265Z,100915.69
2018-01-24T03:12:12.903Z,100928.16
2018-01-24T03:13:19.000Z,100925.45
2018-01-24T03:14:25.179Z,100921.13
2018-01-24T03:15:31.328Z,100911.98
2018-01-24T03:16:37.445Z,100917.98
2018-01-24T03:17:43.548Z,100911.10
2018-01-24T03:18:49.712Z,100904.75
2018-01-24T03:19:55.816Z,100902.00
2018-01-24T03:21:01.976Z,100908.00
2018-01-24T03:22:08.077Z,100914.16
2018-01-24T03:23:14.177Z,100909.94
2018-01-24T03:24:23.416Z,100910.34
2018-01-24T03:25:29.609Z,100915.55
2018-01-24T03:26:35.743Z,100914.17
2018-01-24T03:27:41.681Z,100916.39
2018-01-24T03:28:47.864Z,100918.45
2018-01-24T03:29:53.967Z,100919.73
2018-01-24T03:31:00.349Z,100926.20
2018-01-24T03:32:06.501Z,100926.17
2018-01-24T03:33:12.650Z,100929.69
2018-01-24T03:34:18.829Z,100925.30
2018-01-24T03:35:24.961Z,100928.30
2018-01-24T03:36:31.070Z,100931.28
2018-01-24T03:37:37.188Z,100935.48
2018-01-24T03:38:43.412Z,100938.08
2018-01-24T03:39:49.569Z,100943.80
2018-01-24T03:40:55.785Z,100936.84
2018-01-24T03:42:01.926Z,100939.45
2018-01-24T03:43:08.123Z,100939.95
2018-01-24T03:44:14.247Z,100940.77
2018-01-24T03:45:20.399Z,100939.47
2018-01-24T03:46:27.503Z,100940.41
2018-01-24T03:47:33.613Z,100937.73
2018-01-24T03:48:39.799Z,100942.48
2018-01-24T03:49:45.934Z,100942.37
2018-01-24T03:50:52.057Z,100947.14
2018-01-24T03:51:58.152Z,100946.61
2018-01-24T03:53:04.287Z,100953.01
2018-01-24T03:54:10.477Z,100951.25
2018-01-24T03:55:16.576Z,100947.84
2018-01-24T03:56:22.815Z,100948.72
2018-01-24T03:57:28.632Z,100945.24
2018-01-24T03:58:34.780Z,100943.78
2018-01-24T03:59:40.882Z,100938.44
2018-01-24T04:00:46.976Z,100936.73
2018-01-24T04:01:53.160Z,100934.12
2018-01-24T04:02:59.347Z,100930.66
2018-01-24T04:04:05.456Z,100930.59
2018-01-24T04:05:11.336Z,100926.72
2018-01-24T04:06:17.482Z,100929.86
2018-01-24T04:07:23.820Z,100931.19
2018-01-24T04:08:29.571Z,100922.88
2018-01-24T04:09:36.098Z,100928.55
2018-01-24T04:10:42.209Z,100928.57
2018-01-24T04:11:48.033Z,100928.70
2018-01-24T04:12:54.199Z,100927.58
2018-01-24T04:14:00.320Z,100930.95
2018-01-24T04:15:06.428Z,100929.13
2018-01-24T04:16:12.637Z,100923.86
2018-01-24T04:17:18.773Z,100928.73
2018-01-24T04:18:24.945Z,100933.92
2018-01-24T04:19:31.106Z,100933.59
2018-01-24T04:20:39.367Z,100927.56
2018-01-24T04:21:45.628Z,100927.18
2018-01-24T04:22:51.895Z,100927.56
2018-01-24T04:23:58.128Z,100933.79
2018-01-24T04:25:04.212Z,100924.59
2018-01-24T04:26:10.356Z,100936.40
2018-01-24T04:27:16.495Z,100929.81
2018-01-24T04:28:22.655Z,100930.77
2018-01-24T04:29:28.825Z,100927.28
2018-01-24T04:30:34.940Z,100928.59
2018-01-24T04:31:41.054Z,100932.19
2018-01-24T04:32:47.263Z,100924.65
2018-01-24T04:33:53.383Z,100919.78
2018-01-24T04:34:59.687Z,100914.87
2018-01-24T04:36:05.787Z,100915.36
2018-01-24T04:37:11.601Z,100912.75
2018-01-24T04:38:17.850Z,100917.55
2018-01-24T04:39:23.973Z,100913.58
2018-01-24T04:40:30.076Z,100915.83
2018-01-24T04:41:36.324Z,100915.02
2018-01-24T04:42:44.002Z,100911.53
2018-01-24T04:43:50.144Z,100914.58
2018-01-24T04:44:56.186Z,100916.83
2018-01-24T04:46:02.316Z,100910.72
2018-01-24T04:47:08.496Z,100917.28
2018-01-24T04:48:14.613Z,100917.27
2018-01-24T04:49:20.839Z,100915.17
2018-01-24T04:50:26.779Z,100919.02
2018-01-24T04:51:33.578Z,100920.17
2018-01-24T04:52:39.788Z,100921.55
2018-01-24T04:53:45.901Z,100919.09
2018-01-24T04:54:52.038Z,100917.40
2018-01-24T04:55:58.204Z,100918.73
2018-01-24T04:57:04.305Z,100917.83
2018-01-24T04:58:10.419Z,100915.94
2018-01-24T04:59:16.308Z,100924.00
2018-01-24T05:00:22.232Z,100923.44
2018-01-24T05:01:27.939Z,100917.42
2018-01-24T05:02:33.868Z,100914.47
2018-01-24T05:03:40.852Z,100914.36
2018-01-24T05:04:46.764Z,100920.83
2018-01-24T05:05:52.940Z,100915.09
2018-01-24T05:07:02.787Z,100915.61
2018-01-24T05:08:08.797Z,100922.05
2018-01-24T05:09:14.713Z,100921.55
2018-01-24T05:10:20.673Z,100923.78
2018-01-24T05:11:26.673Z,100919.74
2018-01-24T05:12:32.654Z,100917.70
2018-01-24T05:13:38.672Z,100917.12
2018-01-24T05:14:44.644Z,100915.09
2018-01-24T05:15:50.708Z,100908.50
2018-01-24T05:16:57.668Z,100911.66
2018-01-24T05:18:03.818Z,100905.15
2018-01-24T05:19:10.023Z,100906.91
2018-01-24T05:20:16.317Z,100901.60
2018-01-24T05:21:22.300Z,100904.15
2018-01-24T05:22:28.287Z,100901.08
2018-01-24T05:23:34.951Z,100903.41
2018-01-24T05:24:41.179Z,100904.30
2018-01-24T05:25:47.432Z,100904.89
2018-01-24T05:26:53.578Z,100916.24
2018-01-24T05:27:59.739Z,100916.72
2018-01-24T05:29:10.573Z,100914.44
2018-01-24T05:30:17.522Z,100908.41
2018-01-24T05:31:23.692Z,100911.27
2018-01-24T05:32:29.969Z,100908.70
2018-01-24T05:33:37.096Z,100913.12
2018-01-24T05:34:43.264Z,100914.44
2018-01-24T05:35:49.951Z,100910.45
2018-01-24T05:36:56.217Z,100913.95
2018-01-24T05:38:02.328Z,100914.81
2018-01-24T05:39:08.455Z,100915.33
2018-01-24T05:40:14.683Z,100918.80
2018-01-24T05:41:20.886Z,100912.25
2018-01-24T05:42:27.067Z,100909.95
2018-01-24T05:43:33.419Z,100909.59
2018-01-24T05:44:39.573Z,100905.66
2018-01-24T05:45:45.731Z,100899.13
2018-01-24T05:46:51.836Z,100903.31
2018-01-24T05:47:58.001Z,100899.80
2018-01-24T05:49:04.323Z,100902.74
2018-01-24T05:50:10.689Z,100899.77
2018-01-24T05:51:16.853Z,100903.12
2018-01-24T05:52:23.010Z,100900.48
2018-01-24T05:53:29.100Z,100904.26
2018-01-24T05:54:35.437Z,100911.23
2018-01-24T05:55:41.542Z,100912.50
2018-01-24T05:56:47.630Z,100912.10
2018-01-24T05:57:53.791Z,100915.98
2018-01-24T05:58:59.940Z,100916.30
2018-01-24T06:00:05.931Z,100923.05
2018-01-24T06:01:12.100Z,100920.42
2018-01-24T06:02:18.287Z,100923.48
2018-01-24T06:03:24.504Z,100935.09
2018-01-24T06:04:30.632Z,100925.87
2018-01-24T06:05:36.803Z,100922.59
2018-01-24T06:06:42.954Z,100918.12
2018-01-24T06:07:49.354Z,100925.12
2018-01-24T06:08:55.337Z,100920.31
2018-01-24T06:10:02.132Z,100921.02
2018-01-24T06:11:08.379Z,100924.09
2018-01-24T06:12:14.499Z,100922.62
2018-01-24T06:13:20.975Z,100927.83
2018-01-24T06:14:27.102Z,100928.77
2018-01-24T06:15:33.231Z,100927.48
2018-01-24T06:16:39.336Z,100930.90
2018-01-24T06:17:46.060Z,100938.19
2018-01-24T06:18:54.824Z,100934.91
2018-01-24T06:20:02.898Z,100940.42
2018-01-24T06:21:10.845Z,100939.16
2018-01-24T06:22:20.374Z,100934.27
2018-01-24T06:23:28.430Z,100935.77
2018-01-24T06:24:36.021Z,100936.63
2018-01-24T06:25:43.137Z,100943.13
2018-01-24T06:26:50.345Z,100940.12
2018-01-24T06:27:56.797Z,100943.25
2018-01-24T06:29:02.939Z,100945.39
2018-01-24T06:30:08.726Z,100950.05
2018-01-24T06:31:14.874Z,100946.66
2018-01-24T06:32:21.036Z,100944.53
2018-01-24T06:33:27.180Z,100943.08
2018-01-24T06:34:33.326Z,100943.48
2018-01-24T06:35:39.245Z,100949.17
2018-01-24T06:36:45.407Z,100949.19
2018-01-24T06:37:51.555Z,100950.47
2018-01-24T06:38:57.580Z,100953.09
2018-01-24T06:40:03.694Z,100948.73
2018-01-24T06:41:09.681Z,100947.41
2018-01-24T06:42:15.844Z,100949.63
2018-01-24T06:43:22.063Z,100948.66
2018-01-24T06:44:28.177Z,100949.86
2018-01-24T06:45:34.399Z,100951.09
2018-01-24T06:46:40.808Z,100954.50
2018-01-24T06:47:47.079Z,100953.18
2018-01-24T06:48:53.515Z,100953.64
2018-01-24T06:49:59.987Z,100957.20
2018-01-24T06:51:06.944Z,100951.61
2018-01-24T06:52:13.186Z,100957.70
2018-01-24T06:53:19.364Z,100959.89
2018-01-24T06:54:25.884Z,100954.22
2018-01-24T06:55:32.269Z,100961.02
2018-01-24T06:56:38.576Z,100962.43
2018-01-24T06:57:45.008Z,100959.75
2018-01-24T06:58:51.244Z,100964.06
2018-01-24T06:59:57.486Z,100961.91
2018-01-24T07:01:03.779Z,100965.75
2018-01-24T07:02:09.971Z,100968.28
2018-01-24T07:03:16.400Z,100965.22
2018-01-24T07:04:23.712Z,100961.73
2018-01-24T07:05:32.048Z,100970.02
2018-01-24T07:06:39.161Z,100969.17
2018-01-24T07:07:45.330Z,100970.30
2018-01-24T07:08:52.015Z,100975.01
2018-01-24T07:09:58.703Z,100977.42
2018-01-24T07:11:04.883Z,100978.38
2018-01-24T07:12:22.132Z,100980.11
2018-01-24T07:13:39.115Z,100979.34
2018-01-24T07:14:45.433Z,100977.19
2018-01-24T07:15:51.879Z,100962.83
2018-01-24T07:16:58.183Z,100963.41
2018-01-24T07:18:04.572Z,100970.00
2018-01-24T07:19:10.900Z,100970.39
2018-01-24T07:20:17.441Z,100973.34
2018-01-24T07:21:23.762Z,100971.16
2018-01-24T07:22:30.291Z,100970.63
2018-01-24T07:23:36.636Z,100967.46
2018-01-24T07:24:42.883Z,100964.87
2018-01-24T07:25:49.170Z,100963.33
2018-01-24T07:26:55.792Z,100969.95
2018-01-24T07:28:02.307Z,100965.65
2018-01-24T07:29:08.478Z,100960.42
2018-01-24T07:30:14.584Z,100958.42
2018-01-24T07:31:21.481Z,100960.55
2018-01-24T07:32:27.878Z,100957.05
2018-01-24T07:33:34.479Z,100960.90
2018-01-24T07:34:40.961Z,100963.56
2018-01-24T07:35:47.229Z,100961.82
2018-01-24T07:36:53.585Z,100959.94
2018-01-24T07:38:00.162Z,100959.15
2018-01-24T07:39:07.058Z,100963.07
2018-01-24T07:40:13.201Z,100964.38
2018-01-24T07:41:20.132Z,100964.62
2018-01-24T07:42:26.488Z,100957.40
2018-01-24T07:43:32.696Z,100952.16
2018-01-24T07:44:39.108Z,100956.81
2018-01-24T07:45:45.292Z,100957.38
2018-01-24T07:46:51.739Z,100953.80
2018-01-24T07:47:58.791Z,100957.30
2018-01-24T07:49:05.209Z,100952.37
2018-01-24T07:50:11.537Z,100957.08
2018-01-24T07:51:17.660Z,100958.52
2018-01-24T07:52:24.055Z,100954.17
2018-01-24T07:53:31.837Z,100940.59
2018-01-24T07:54:38.625Z,100951.10
2018-01-24T07:55:45.471Z,100943.58
2018-01-24T07:56:52.507Z,100943.58
2018-01-24T07:57:58.798Z,100943.03
2018-01-24T07:59:05.464Z,100947.23
2018-01-24T08:00:12.640Z,100945.85
2018-01-24T08:01:18.930Z,100941.89
2018-01-24T08:02:25.188Z,100946.69
2018-01-24T08:03:31.324Z,100948.27
2018-01-24T08:04:37.631Z,100953.09
2018-01-24T08:05:43.973Z,100953.15
2018-01-24T08:06:50.405Z,100953.58
2018-01-24T08:07:56.588Z,100949.67
2018-01-24T08:09:03.116Z,100957.19
2018-01-24T08:10:08.936Z,100965.30
2018-01-24T08:11:15.135Z,100964.47
2018-01-24T08:12:26.521Z,100968.41
2018-01-24T08:13:32.657Z,100962.65
2018-01-24T08:14:39.810Z,100972.16
2018-01-24T08:15:47.709Z,100969.09
2018-01-24T08:16:53.939Z,100967.78
2018-01-24T08:18:00.102Z,100969.45
2018-01-24T08:19:05.826Z,100976.55
2018-01-24T08:20:12.098Z,100975.77
2018-01-24T08:21:18.205Z,100980.56
2018-01-24T08:22:24.332Z,100977.14
2018-01-24T08:23:30.666Z,100978.89
2018-01-24T08:24:36.800Z,100981.05
2018-01-24T08:25:42.931Z,100984.87
2018-01-24T08:26:49.056Z,100983.96
2018-01-24T08:27:55.273Z,100983.61
2018-01-24T08:29:01.380Z,100982.34
2018-01-24T08:30:07.955Z,100986.17
2018-01-24T08:31:15.698Z,100982.62
2018-01-24T08:32:21.880Z,100986.55
2018-01-24T08:33:28.052Z,100987.70
2018-01-24T08:34:34.180Z,100988.05
2018-01-24T08:35:41.316Z,100983.77
2018-01-24T08:36:47.507Z,100982.55
2018-01-24T08:37:53.684Z,100989.44
2018-01-24T08:38:59.813Z,100982.45
2018-01-24T08:40:06.002Z,100974.58
2018-01-24T08:41:12.249Z,100976.23
2018-01-24T08:42:18.034Z,100973.20
2018-01-24T08:43:24.156Z,100977.98
2018-01-24T08:44:30.316Z,100979.73
2018-01-24T08:45:36.435Z,100972.78
2018-01-24T08:46:42.593Z,100976.93
2018-01-24T08:47:48.748Z,100980.38
2018-01-24T08:48:54.882Z,100974.66
2018-01-24T08:50:01.057Z,100981.48
2018-01-24T08:51:07.315Z,100979.54
2018-01-24T08:52:13.517Z,100979.98
2018-01-24T08:53:20.274Z,100973.80
2018-01-24T08:54:27.893Z,100970.47
2018-01-24T08:55:34.478Z,100971.45
2018-01-24T08:56:40.924Z,100970.48
2018-01-24T08:57:47.107Z,100967.31
2018-01-24T08:58:54.301Z,100972.56
2018-01-24T09:00:18.263Z,100968.73
2018-01-24T09:01:47.176Z,100966.92
2018-01-24T09:03:15.723Z,100967.09
2018-01-24T09:04:44.319Z,100968.65
2018-01-24T09:06:12.890Z,100974.19
2018-01-24T09:07:41.160Z,100960.70
2018-01-24T09:09:09.953Z,100961.39
2018-01-24T09:10:38.306Z,100960.70
2018-01-24T09:12:06.739Z,100964.21
2018-01-24T09:13:35.220Z,100962.35
2018-01-24T09:15:03.827Z,100972.53
2018-01-24T09:16:32.439Z,100962.44
2018-01-24T09:18:00.807Z,100959.22
2018-01-24T09:19:29.072Z,100961.03
2018-01-24T09:20:57.819Z,100963.36
2018-01-24T09:22:26.316Z,100967.53
2018-01-24T09:23:50.825Z,100959.27
2018-01-24T09:25:00.666Z,100963.61
2018-01-24T09:26:07.420Z,100962.31
2018-01-24T09:27:13.758Z,100956.54
2018-01-24T09:28:20.101Z,100958.98
2018-01-24T09:29:26.442Z,100956.58
2018-01-24T09:30:32.664Z,100953.97
2018-01-24T09:31:39.431Z,100951.75
2018-01-24T09:32:45.646Z,100949.86
2018-01-24T09:33:51.842Z,100942.80
2018-01-24T09:34:58.034Z,100946.72
2018-01-24T09:36:04.665Z,100944.90
2018-01-24T09:37:11.442Z,100942.34
2018-01-24T09:38:17.835Z,100940.39
2018-01-24T09:39:24.207Z,100944.11
2018-01-24T09:40:30.612Z,100943.78
2018-01-24T09:41:37.457Z,100942.52
2018-01-24T09:42:43.812Z,100947.04
2018-01-24T09:43:50.185Z,100939.26
2018-01-24T09:44:56.648Z,100944.95
2018-01-24T09:46:02.843Z,100948.00
2018-01-24T09:47:09.155Z,100950.44
2018-01-24T09:48:15.379Z,100952.73
2018-01-24T09:49:21.708Z,100951.67
2018-01-24T09:50:27.997Z,100950.94
2018-01-24T09:51:34.193Z,100953.89
2018-01-24T09:52:40.702Z,100952.72
2018-01-24T09:53:46.969Z,100950.35
2018-01-24T09:54:54.068Z,100946.19
2018-01-24T09:56:00.184Z,100954.39
2018-01-24T09:57:06.315Z,100948.73
2018-01-24T09:58:15.184Z,100946.29
2018-01-24T09:59:21.330Z,100934.38
2018-01-24T10:00:27.511Z,100940.20
2018-01-24T10:01:33.696Z,100945.34
2018-01-24T10:02:40.778Z,100938.02
2018-01-24T10:03:49.966Z,100940.05
2018-01-24T10:04:56.123Z,100939.01
2018-01-24T10:06:02.283Z,100943.32
2018-01-24T10:07:08.452Z,100944.30
2018-01-24T10:08:14.695Z,100947.16
2018-01-24T10:09:22.260Z,100945.52
2018-01-24T10:10:28.476Z,100940.83
2018-01-24T10:11:34.624Z,100944.03
2018-01-24T10:12:41.652Z,100944.14
2018-01-24T10:13:47.840Z,100945.42
2018-01-24T10:14:54.112Z,100950.91
2018-01-24T10:16:01.391Z,100950.70
2018-01-24T10:17:07.631Z,100946.17
2018-01-24T10:18:13.804Z,100952.20
2018-01-24T10:19:20.015Z,100948.84
2018-01-24T10:20:26.185Z,100955.18
2018-01-24T10:21:32.314Z,100956.45
2018-01-24T10:22:39.333Z,100941.71
2018-01-24T10:23:46.250Z,100942.51
2018-01-24T10:24:53.209Z,100934.08
2018-01-24T10:26:00.649Z,100934.59
2018-01-24T10:27:08.418Z,100931.52
2018-01-24T10:28:15.382Z,100937.09
2018-01-24T10:29:23.058Z,100934.86
2018-01-24T10:30:30.321Z,100935.29
2018-01-24T10:31:37.715Z,100935.16
2018-01-24T10:32:45.868Z,100934.64
2018-01-24T10:33:52.918Z,100931.46
2018-01-24T10:35:00.510Z,100928.52
2018-01-24T10:36:06.779Z,100929.50
2018-01-24T10:37:13.163Z,100926.87
2018-01-24T10:38:19.368Z,100924.16
2018-01-24T10:39:25.571Z,100920.53
2018-01-24T10:40:31.789Z,100911.61
2018-01-24T10:41:38.022Z,100915.97
2018-01-24T10:42:44.536Z,100907.36
2018-01-24T10:43:51.352Z,100909.30
2018-01-24T10:44:57.763Z,100912.56
2018-01-24T10:46:04.294Z,100913.31
2018-01-24T10:47:11.909Z,100903.48
2018-01-24T10:48:20.631Z,100902.66
2018-01-24T10:49:27.995Z,100899.86
2018-01-24T10:50:34.712Z,100892.80
2018-01-24T10:51:41.873Z,100892.25
2018-01-24T10:52:51.160Z,100895.12
2018-01-24T10:53:58.749Z,100890.61
2018-01-24T10:55:06.807Z,100893.30
2018-01-24T10:56:13.892Z,100885.44
2018-01-24T10:57:20.862Z,100886.42
2018-01-24T10:58:28.085Z,100887.42
2018-01-24T10:59:35.123Z,100882.63
2018-01-24T11:00:43.372Z,100881.51
2018-01-24T11:01:51.129Z,100878.23
2018-01-24T11:02:58.365Z,100875.42
2018-01-24T11:04:05.621Z,100869.75
2018-01-24T11:05:12.636Z,100870.72
2018-01-24T11:06:18.970Z,100872.22
2018-01-24T11:07:25.038Z,100862.12
2018-01-24T11:08:30.631Z,100859.50
2018-01-24T11:09:37.018Z,100859.78
2018-01-24T11:10:43.312Z,100859.88
2018-01-24T11:11:49.331Z,100854.83
2018-01-24T11:12:55.631Z,100854.27
2018-01-24T11:14:01.663Z,100847.64
2018-01-24T11:15:07.951Z,100853.70
2018-01-24T11:16:14.244Z,100844.84
2018-01-24T11:17:20.457Z,100851.84
2018-01-24T11:18:26.814Z,100846.19
2018-01-24T11:19:33.011Z,100845.56
2018-01-24T11:20:39.638Z,100846.77
2018-01-24T11:21:45.466Z,100846.36
2018-01-24T11:22:52.258Z,100843.98
2018-01-24T11:23:58.556Z,100839.56
2018-01-24T11:25:04.861Z,100838.20
2018-01-24T11:26:12.212Z,100828.69
2018-01-24T11:27:18.367Z,100831.53
2018-01-24T11:28:24.718Z,100831.42
2018-01-24T11:29:31.220Z,100824.33
2018-01-24T11:30:37.587Z,100832.85
2018-01-24T11:31:44.071Z,100834.30
2018-01-24T11:32:50.673Z,100834.62
2018-01-24T11:33:57.555Z,100840.20
2018-01-24T11:35:03.832Z,100821.75
2018-01-24T11:36:09.969Z,100823.59
2018-01-24T11:37:17.993Z,100824.88
2018-01-24T11:38:25.123Z,100829.45
2018-01-24T11:39:31.495Z,100829.33
2018-01-24T11:40:37.685Z,100819.27
2018-01-24T11:41:49.007Z,100825.39
2018-01-24T11:42:55.251Z,100822.42
2018-01-24T11:44:01.682Z,100835.56
2018-01-24T11:45:08.007Z,100818.77
2018-01-24T11:46:14.580Z,100820.45
2018-01-24T11:47:21.139Z,100821.89
2018-01-24T11:48:27.536Z,100814.05
2018-01-24T11:49:34.587Z,100821.00
2018-01-24T11:50:41.463Z,100808.22
2018-01-24T11:51:48.709Z,100815.89
2018-01-24T11:52:55.044Z,100811.33
2018-01-24T11:54:01.603Z,100809.29
2018-01-24T11:55:08.017Z,100811.76
2018-01-24T11:56:15.403Z,100809.11
2018-01-24T11:57:22.238Z,100808.67
2018-01-24T11:58:28.637Z,100809.97
2018-01-24T11:59:35.073Z,100809.84
2018-01-24T12:00:43.558Z,100816.27
2018-01-24T12:01:50.432Z,100808.55
2018-01-24T12:02:57.098Z,100807.64
2018-01-24T12:04:03.779Z,100806.95
2018-01-24T12:05:10.011Z,100805.22
2018-01-24T12:06:15.988Z,100804.66
2018-01-24T12:07:22.647Z,100802.55
2018-01-24T12:08:29.331Z,100806.65
2018-01-24T12:09:35.844Z,100805.72
2018-01-24T12:10:42.400Z,100801.97
2018-01-24T12:11:48.564Z,100793.13
2018-01-24T12:12:54.828Z,100800.73
2018-01-24T12:14:01.936Z,100795.24
2018-01-24T12:15:08.452Z,100798.81
2018-01-24T12:16:15.445Z,100791.27
2018-01-24T12:17:22.477Z,100795.47
2018-01-24T12:18:28.691Z,100789.91
2018-01-24T12:19:35.867Z,100791.52
2018-01-24T12:20:42.174Z,100792.45
2018-01-24T12:21:48.632Z,100785.91
2018-01-24T12:22:54.886Z,100790.52
2018-01-24T12:24:01.496Z,100781.31
2018-01-24T12:25:07.753Z,100784.34
2018-01-24T12:26:14.101Z,100777.70
2018-01-24T12:27:20.352Z,100768.27
2018-01-24T12:28:26.707Z,100768.22
2018-01-24T12:29:32.622Z,100765.63
2018-01-24T12:30:38.747Z,100761.47
2018-01-24T12:31:45.140Z,100755.91
2018-01-24T12:32:51.362Z,100749.92
2018-01-24T12:33:57.545Z,100759.16
2018-01-24T12:35:04.392Z,100751.19
2018-01-24T12:36:12.710Z,100748.87
2018-01-24T12:37:22.635Z,100745.72
2018-01-24T12:38:30.642Z,100742.05
2018-01-24T12:39:37.846Z,100733.80
2018-01-24T12:40:45.606Z,100734.13
2018-01-24T12:41:53.152Z,100740.28
2018-01-24T12:42:59.647Z,100732.82
2018-01-24T12:44:06.895Z,100726.08
2018-01-24T12:45:13.277Z,100718.49
2018-01-24T12:46:22.477Z,100727.88
2018-01-24T12:47:29.734Z,100722.77